sensor_id;sensor_type;location;lat;lon;timestamp;P1;durP1;ratioP1;P2;durP2;ratioP2
79697;SDS011;69168;42.708;23.286;2024-02-23T00:01:34;9.30;;;5.28;;
79697;SDS011;69168;42.708;23.286;2024-02-23T00:04:00;9.75;;;4.82;;
79697;SDS011;69168;42.708;23.286;2024-02-23T00:06:27;11.43;;;5.15;;
79697;SDS011;69168;42.708;23.286;2024-02-23T00:08:53;9.05;;;5.20;;
79697;SDS011;69168;42.708;23.286;2024-02-23T00:11:20;8.68;;;5.00;;
79697;SDS011;69168;42.708;23.286;2024-02-23T00:13:46;9.00;;;5.28;;
79697;SDS011;69168;42.708;23.286;2024-02-23T00:16:11;9.13;;;5.10;;
79697;SDS011;69168;42.708;23.286;2024-02-23T00:18:37;9.00;;;5.35;;
79697;SDS011;69168;42.708;23.286;2024-02-23T00:21:03;10.70;;;5.55;;
79697;SDS011;69168;42.708;23.286;2024-02-23T00:23:29;8.75;;;5.10;;
79697;SDS011;69168;42.708;23.286;2024-02-23T00:25:55;9.13;;;5.63;;
79697;SDS011;69168;42.708;23.286;2024-02-23T00:28:20;11.25;;;5.50;;
79697;SDS011;69168;42.708;23.286;2024-02-23T00:30:46;9.65;;;6.00;;
79697;SDS011;69168;42.708;23.286;2024-02-23T00:33:12;9.38;;;5.55;;
79697;SDS011;69168;42.708;23.286;2024-02-23T00:35:37;10.93;;;5.47;;
79697;SDS011;69168;42.708;23.286;2024-02-23T00:38:03;9.70;;;4.82;;
79697;SDS011;69168;42.708;23.286;2024-02-23T00:40:29;8.95;;;4.68;;
79697;SDS011;69168;42.708;23.286;2024-02-23T00:42:54;7.22;;;5.07;;
79697;SDS011;69168;42.708;23.286;2024-02-23T00:45:20;9.07;;;5.22;;
79697;SDS011;69168;42.708;23.286;2024-02-23T00:47:46;8.75;;;5.28;;
79697;SDS011;69168;42.708;23.286;2024-02-23T00:50:12;10.10;;;5.20;;
79697;SDS011;69168;42.708;23.286;2024-02-23T00:52:38;8.75;;;5.45;;
79697;SDS011;69168;42.708;23.286;2024-02-23T00:55:03;10.05;;;5.82;;
79697;SDS011;69168;42.708;23.286;2024-02-23T00:57:29;9.10;;;5.28;;
79697;SDS011;69168;42.708;23.286;2024-02-23T00:59:58;9.32;;;5.40;;
79697;SDS011;69168;42.708;23.286;2024-02-23T01:02:23;9.98;;;5.35;;
79697;SDS011;69168;42.708;23.286;2024-02-23T01:04:49;10.73;;;5.05;;
79697;SDS011;69168;42.708;23.286;2024-02-23T01:07:15;10.07;;;5.60;;
79697;SDS011;69168;42.708;23.286;2024-02-23T01:09:40;9.38;;;5.55;;
79697;SDS011;69168;42.708;23.286;2024-02-23T01:12:06;9.93;;;5.18;;
79697;SDS011;69168;42.708;23.286;2024-02-23T01:14:31;6.65;;;4.68;;
79697;SDS011;69168;42.708;23.286;2024-02-23T01:16:57;9.00;;;5.03;;
79697;SDS011;69168;42.708;23.286;2024-02-23T01:19:22;8.45;;;4.95;;
79697;SDS011;69168;42.708;23.286;2024-02-23T01:21:48;7.93;;;4.82;;
79697;SDS011;69168;42.708;23.286;2024-02-23T01:24:20;7.10;;;4.47;;
79697;SDS011;69168;42.708;23.286;2024-02-23T01:26:46;8.30;;;5.20;;
79697;SDS011;69168;42.708;23.286;2024-02-23T01:29:11;9.75;;;4.93;;
79697;SDS011;69168;42.708;23.286;2024-02-23T01:31:37;9.52;;;5.20;;
79697;SDS011;69168;42.708;23.286;2024-02-23T01:34:03;9.75;;;5.18;;
79697;SDS011;69168;42.708;23.286;2024-02-23T01:36:28;9.95;;;5.28;;
79697;SDS011;69168;42.708;23.286;2024-02-23T01:38:54;7.68;;;5.13;;
79697;SDS011;69168;42.708;23.286;2024-02-23T01:41:20;8.00;;;5.10;;
79697;SDS011;69168;42.708;23.286;2024-02-23T01:43:45;9.52;;;5.72;;
79697;SDS011;69168;42.708;23.286;2024-02-23T01:46:11;8.82;;;4.97;;
79697;SDS011;69168;42.708;23.286;2024-02-23T01:48:36;11.18;;;5.60;;
79697;SDS011;69168;42.708;23.286;2024-02-23T01:51:02;10.93;;;5.15;;
79697;SDS011;69168;42.708;23.286;2024-02-23T01:53:28;9.68;;;6.05;;
79697;SDS011;69168;42.708;23.286;2024-02-23T01:55:54;9.80;;;5.65;;
79697;SDS011;69168;42.708;23.286;2024-02-23T01:58:20;9.80;;;5.38;;
79697;SDS011;69168;42.708;23.286;2024-02-23T02:00:46;9.70;;;5.72;;
79697;SDS011;69168;42.708;23.286;2024-02-23T02:03:12;11.10;;;6.15;;
79697;SDS011;69168;42.708;23.286;2024-02-23T02:05:37;9.93;;;5.85;;
79697;SDS011;69168;42.708;23.286;2024-02-23T02:08:03;9.32;;;5.55;;
79697;SDS011;69168;42.708;23.286;2024-02-23T02:10:29;9.68;;;6.15;;
79697;SDS011;69168;42.708;23.286;2024-02-23T02:12:55;9.13;;;5.70;;
79697;SDS011;69168;42.708;23.286;2024-02-23T02:15:20;9.63;;;5.38;;
79697;SDS011;69168;42.708;23.286;2024-02-23T02:17:47;7.93;;;5.07;;
79697;SDS011;69168;42.708;23.286;2024-02-23T02:20:13;10.23;;;5.50;;
79697;SDS011;69168;42.708;23.286;2024-02-23T02:22:39;10.18;;;6.00;;
79697;SDS011;69168;42.708;23.286;2024-02-23T02:25:05;8.88;;;5.85;;
79697;SDS011;69168;42.708;23.286;2024-02-23T02:27:31;10.52;;;5.72;;
79697;SDS011;69168;42.708;23.286;2024-02-23T02:29:57;7.57;;;5.22;;
79697;SDS011;69168;42.708;23.286;2024-02-23T02:32:22;9.25;;;6.03;;
79697;SDS011;69168;42.708;23.286;2024-02-23T02:34:48;8.73;;;5.45;;
79697;SDS011;69168;42.708;23.286;2024-02-23T02:37:14;8.93;;;5.82;;
79697;SDS011;69168;42.708;23.286;2024-02-23T02:39:40;12.05;;;5.85;;
79697;SDS011;69168;42.708;23.286;2024-02-23T02:42:05;8.30;;;5.00;;
79697;SDS011;69168;42.708;23.286;2024-02-23T02:44:31;8.82;;;5.78;;
79697;SDS011;69168;42.708;23.286;2024-02-23T02:46:57;8.02;;;5.22;;
79697;SDS011;69168;42.708;23.286;2024-02-23T02:49:22;9.13;;;5.68;;
79697;SDS011;69168;42.708;23.286;2024-02-23T02:51:48;11.95;;;6.15;;
79697;SDS011;69168;42.708;23.286;2024-02-23T02:54:14;9.20;;;6.13;;
79697;SDS011;69168;42.708;23.286;2024-02-23T02:56:43;11.30;;;6.00;;
79697;SDS011;69168;42.708;23.286;2024-02-23T02:59:09;10.32;;;5.07;;
79697;SDS011;69168;42.708;23.286;2024-02-23T03:01:35;8.65;;;5.80;;
79697;SDS011;69168;42.708;23.286;2024-02-23T03:04:01;11.48;;;6.20;;
79697;SDS011;69168;42.708;23.286;2024-02-23T03:06:26;9.35;;;5.90;;
79697;SDS011;69168;42.708;23.286;2024-02-23T03:08:52;11.90;;;6.22;;
79697;SDS011;69168;42.708;23.286;2024-02-23T03:11:17;9.48;;;5.32;;
79697;SDS011;69168;42.708;23.286;2024-02-23T03:13:43;11.05;;;6.07;;
79697;SDS011;69168;42.708;23.286;2024-02-23T03:16:18;9.43;;;5.82;;
79697;SDS011;69168;42.708;23.286;2024-02-23T03:18:44;9.88;;;6.05;;
79697;SDS011;69168;42.708;23.286;2024-02-23T03:21:09;8.63;;;5.93;;
79697;SDS011;69168;42.708;23.286;2024-02-23T03:23:35;9.95;;;6.05;;
79697;SDS011;69168;42.708;23.286;2024-02-23T03:26:01;10.93;;;5.47;;
79697;SDS011;69168;42.708;23.286;2024-02-23T03:28:27;10.25;;;6.25;;
79697;SDS011;69168;42.708;23.286;2024-02-23T03:30:53;8.63;;;5.25;;
79697;SDS011;69168;42.708;23.286;2024-02-23T03:33:19;9.82;;;5.97;;
79697;SDS011;69168;42.708;23.286;2024-02-23T03:35:44;11.45;;;5.97;;
79697;SDS011;69168;42.708;23.286;2024-02-23T03:38:10;10.00;;;5.95;;
79697;SDS011;69168;42.708;23.286;2024-02-23T03:40:35;10.60;;;6.20;;
79697;SDS011;69168;42.708;23.286;2024-02-23T03:43:01;10.40;;;5.45;;
79697;SDS011;69168;42.708;23.286;2024-02-23T03:45:27;10.93;;;6.20;;
79697;SDS011;69168;42.708;23.286;2024-02-23T03:47:53;10.85;;;6.25;;
79697;SDS011;69168;42.708;23.286;2024-02-23T03:50:18;10.38;;;5.63;;
79697;SDS011;69168;42.708;23.286;2024-02-23T03:52:44;9.73;;;6.03;;
79697;SDS011;69168;42.708;23.286;2024-02-23T03:55:10;10.73;;;6.43;;
79697;SDS011;69168;42.708;23.286;2024-02-23T03:57:35;11.38;;;6.30;;
79697;SDS011;69168;42.708;23.286;2024-02-23T04:00:01;11.45;;;6.25;;
79697;SDS011;69168;42.708;23.286;2024-02-23T04:02:27;10.85;;;5.95;;
79697;SDS011;69168;42.708;23.286;2024-02-23T04:04:53;8.52;;;5.28;;
79697;SDS011;69168;42.708;23.286;2024-02-23T04:07:19;8.60;;;5.63;;
79697;SDS011;69168;42.708;23.286;2024-02-23T04:09:44;10.60;;;5.93;;
79697;SDS011;69168;42.708;23.286;2024-02-23T04:12:10;11.45;;;6.72;;
79697;SDS011;69168;42.708;23.286;2024-02-23T04:14:36;8.82;;;5.50;;
79697;SDS011;69168;42.708;23.286;2024-02-23T04:17:04;8.20;;;5.80;;
79697;SDS011;69168;42.708;23.286;2024-02-23T04:19:30;9.82;;;5.70;;
79697;SDS011;69168;42.708;23.286;2024-02-23T04:21:56;13.77;;;5.95;;
79697;SDS011;69168;42.708;23.286;2024-02-23T04:24:21;12.57;;;7.15;;
79697;SDS011;69168;42.708;23.286;2024-02-23T04:26:47;15.38;;;6.78;;
79697;SDS011;69168;42.708;23.286;2024-02-23T04:29:12;9.90;;;6.22;;
79697;SDS011;69168;42.708;23.286;2024-02-23T04:31:38;10.75;;;6.68;;
79697;SDS011;69168;42.708;23.286;2024-02-23T04:34:03;11.98;;;7.25;;
79697;SDS011;69168;42.708;23.286;2024-02-23T04:36:29;10.70;;;6.90;;
79697;SDS011;69168;42.708;23.286;2024-02-23T04:38:55;14.55;;;7.20;;
79697;SDS011;69168;42.708;23.286;2024-02-23T04:41:20;11.02;;;7.05;;
79697;SDS011;69168;42.708;23.286;2024-02-23T04:43:49;13.10;;;7.05;;
79697;SDS011;69168;42.708;23.286;2024-02-23T04:46:15;14.13;;;8.45;;
79697;SDS011;69168;42.708;23.286;2024-02-23T04:48:40;14.35;;;8.23;;
79697;SDS011;69168;42.708;23.286;2024-02-23T04:51:07;12.88;;;7.68;;
79697;SDS011;69168;42.708;23.286;2024-02-23T04:53:38;13.77;;;7.20;;
79697;SDS011;69168;42.708;23.286;2024-02-23T04:56:04;10.57;;;7.28;;
79697;SDS011;69168;42.708;23.286;2024-02-23T04:58:30;11.30;;;6.75;;
79697;SDS011;69168;42.708;23.286;2024-02-23T05:00:55;12.75;;;7.30;;
79697;SDS011;69168;42.708;23.286;2024-02-23T05:03:21;15.23;;;8.73;;
79697;SDS011;69168;42.708;23.286;2024-02-23T05:05:46;19.73;;;9.82;;
79697;SDS011;69168;42.708;23.286;2024-02-23T05:08:13;14.30;;;8.10;;
79697;SDS011;69168;42.708;23.286;2024-02-23T05:10:38;12.90;;;7.50;;
79697;SDS011;69168;42.708;23.286;2024-02-23T05:13:04;14.95;;;8.00;;
79697;SDS011;69168;42.708;23.286;2024-02-23T05:15:30;14.57;;;8.32;;
79697;SDS011;69168;42.708;23.286;2024-02-23T05:17:55;19.30;;;8.63;;
79697;SDS011;69168;42.708;23.286;2024-02-23T05:20:21;14.77;;;7.82;;
79697;SDS011;69168;42.708;23.286;2024-02-23T05:22:47;13.43;;;8.32;;
79697;SDS011;69168;42.708;23.286;2024-02-23T05:25:13;16.23;;;8.77;;
79697;SDS011;69168;42.708;23.286;2024-02-23T05:27:39;11.45;;;6.95;;
79697;SDS011;69168;42.708;23.286;2024-02-23T05:30:04;13.98;;;8.07;;
79697;SDS011;69168;42.708;23.286;2024-02-23T05:32:31;14.38;;;7.85;;
79697;SDS011;69168;42.708;23.286;2024-02-23T05:34:57;16.40;;;8.85;;
79697;SDS011;69168;42.708;23.286;2024-02-23T05:37:22;14.05;;;8.32;;
79697;SDS011;69168;42.708;23.286;2024-02-23T05:39:49;11.93;;;7.18;;
79697;SDS011;69168;42.708;23.286;2024-02-23T05:42:14;15.25;;;7.82;;
79697;SDS011;69168;42.708;23.286;2024-02-23T05:44:43;13.52;;;7.13;;
79697;SDS011;69168;42.708;23.286;2024-02-23T05:47:09;14.43;;;8.65;;
79697;SDS011;69168;42.708;23.286;2024-02-23T05:49:35;20.42;;;9.48;;
79697;SDS011;69168;42.708;23.286;2024-02-23T05:52:01;14.02;;;8.02;;
79697;SDS011;69168;42.708;23.286;2024-02-23T05:54:27;16.35;;;8.77;;
79697;SDS011;69168;42.708;23.286;2024-02-23T05:56:52;17.00;;;8.77;;
79697;SDS011;69168;42.708;23.286;2024-02-23T05:59:18;14.38;;;8.05;;
79697;SDS011;69168;42.708;23.286;2024-02-23T06:01:43;16.08;;;8.25;;
79697;SDS011;69168;42.708;23.286;2024-02-23T06:04:09;14.68;;;8.02;;
79697;SDS011;69168;42.708;23.286;2024-02-23T06:06:34;15.40;;;8.07;;
79697;SDS011;69168;42.708;23.286;2024-02-23T06:09:00;14.55;;;8.18;;
79697;SDS011;69168;42.708;23.286;2024-02-23T06:11:25;15.52;;;8.55;;
79697;SDS011;69168;42.708;23.286;2024-02-23T06:13:51;17.85;;;8.15;;
79697;SDS011;69168;42.708;23.286;2024-02-23T06:16:17;17.08;;;8.73;;
79697;SDS011;69168;42.708;23.286;2024-02-23T06:18:42;15.45;;;8.38;;
79697;SDS011;69168;42.708;23.286;2024-02-23T06:21:14;19.40;;;10.57;;
79697;SDS011;69168;42.708;23.286;2024-02-23T06:23:41;13.70;;;8.57;;
79697;SDS011;69168;42.708;23.286;2024-02-23T06:26:06;16.77;;;8.77;;
79697;SDS011;69168;42.708;23.286;2024-02-23T06:28:32;17.92;;;9.20;;
79697;SDS011;69168;42.708;23.286;2024-02-23T06:30:58;17.42;;;8.50;;
79697;SDS011;69168;42.708;23.286;2024-02-23T06:33:23;16.95;;;8.82;;
79697;SDS011;69168;42.708;23.286;2024-02-23T06:35:49;12.57;;;7.75;;
79697;SDS011;69168;42.708;23.286;2024-02-23T06:38:15;15.27;;;8.48;;
79697;SDS011;69168;42.708;23.286;2024-02-23T06:40:41;16.98;;;9.70;;
79697;SDS011;69168;42.708;23.286;2024-02-23T06:43:07;14.38;;;7.82;;
79697;SDS011;69168;42.708;23.286;2024-02-23T06:45:32;15.13;;;8.55;;
79697;SDS011;69168;42.708;23.286;2024-02-23T06:47:58;14.95;;;8.45;;
79697;SDS011;69168;42.708;23.286;2024-02-23T06:50:23;15.73;;;8.82;;
79697;SDS011;69168;42.708;23.286;2024-02-23T06:52:49;15.32;;;8.60;;
79697;SDS011;69168;42.708;23.286;2024-02-23T06:55:14;18.55;;;9.38;;
79697;SDS011;69168;42.708;23.286;2024-02-23T06:57:41;13.13;;;8.25;;
79697;SDS011;69168;42.708;23.286;2024-02-23T07:00:07;15.10;;;8.55;;
79697;SDS011;69168;42.708;23.286;2024-02-23T07:02:33;12.93;;;8.68;;
79697;SDS011;69168;42.708;23.286;2024-02-23T07:05:01;26.27;;;14.65;;
79697;SDS011;69168;42.708;23.286;2024-02-23T07:07:29;19.92;;;11.73;;
79697;SDS011;69168;42.708;23.286;2024-02-23T07:09:56;16.80;;;10.32;;
79697;SDS011;69168;42.708;23.286;2024-02-23T07:12:21;15.43;;;9.07;;
79697;SDS011;69168;42.708;23.286;2024-02-23T07:14:47;19.75;;;9.73;;
79697;SDS011;69168;42.708;23.286;2024-02-23T07:17:17;17.80;;;9.18;;
79697;SDS011;69168;42.708;23.286;2024-02-23T07:19:43;17.70;;;9.40;;
79697;SDS011;69168;42.708;23.286;2024-02-23T07:22:08;15.52;;;8.98;;
79697;SDS011;69168;42.708;23.286;2024-02-23T07:24:34;15.38;;;8.93;;
79697;SDS011;69168;42.708;23.286;2024-02-23T07:26:59;16.33;;;10.13;;
79697;SDS011;69168;42.708;23.286;2024-02-23T07:29:25;16.52;;;9.50;;
79697;SDS011;69168;42.708;23.286;2024-02-23T07:31:50;18.48;;;9.07;;
79697;SDS011;69168;42.708;23.286;2024-02-23T07:34:19;14.23;;;8.93;;
79697;SDS011;69168;42.708;23.286;2024-02-23T07:36:44;19.38;;;10.20;;
79697;SDS011;69168;42.708;23.286;2024-02-23T07:39:11;18.55;;;9.30;;
79697;SDS011;69168;42.708;23.286;2024-02-23T07:41:36;20.35;;;10.43;;
79697;SDS011;69168;42.708;23.286;2024-02-23T07:44:04;21.00;;;10.60;;
79697;SDS011;69168;42.708;23.286;2024-02-23T07:46:29;22.55;;;11.43;;
79697;SDS011;69168;42.708;23.286;2024-02-23T07:48:55;26.88;;;11.18;;
79697;SDS011;69168;42.708;23.286;2024-02-23T07:51:20;25.60;;;13.80;;
79697;SDS011;69168;42.708;23.286;2024-02-23T07:53:46;23.05;;;11.27;;
79697;SDS011;69168;42.708;23.286;2024-02-23T07:56:11;24.45;;;11.68;;
79697;SDS011;69168;42.708;23.286;2024-02-23T07:58:37;19.25;;;10.65;;
79697;SDS011;69168;42.708;23.286;2024-02-23T08:01:03;20.50;;;11.40;;
79697;SDS011;69168;42.708;23.286;2024-02-23T08:03:29;22.90;;;11.63;;
79697;SDS011;69168;42.708;23.286;2024-02-23T08:05:54;24.13;;;12.23;;
79697;SDS011;69168;42.708;23.286;2024-02-23T08:08:20;27.05;;;11.80;;
79697;SDS011;69168;42.708;23.286;2024-02-23T08:10:48;22.02;;;11.85;;
79697;SDS011;69168;42.708;23.286;2024-02-23T08:13:13;19.52;;;12.57;;
79697;SDS011;69168;42.708;23.286;2024-02-23T08:15:39;20.35;;;10.50;;
79697;SDS011;69168;42.708;23.286;2024-02-23T08:18:04;21.83;;;11.38;;
79697;SDS011;69168;42.708;23.286;2024-02-23T08:20:30;22.67;;;10.90;;
79697;SDS011;69168;42.708;23.286;2024-02-23T08:22:55;23.55;;;11.50;;
79697;SDS011;69168;42.708;23.286;2024-02-23T08:25:21;22.60;;;11.48;;
79697;SDS011;69168;42.708;23.286;2024-02-23T08:27:46;23.08;;;12.18;;
79697;SDS011;69168;42.708;23.286;2024-02-23T08:30:13;20.15;;;11.65;;
79697;SDS011;69168;42.708;23.286;2024-02-23T08:32:39;25.48;;;11.90;;
79697;SDS011;69168;42.708;23.286;2024-02-23T08:35:08;21.60;;;11.20;;
79697;SDS011;69168;42.708;23.286;2024-02-23T08:37:33;17.45;;;10.95;;
79697;SDS011;69168;42.708;23.286;2024-02-23T08:39:59;18.17;;;10.65;;
79697;SDS011;69168;42.708;23.286;2024-02-23T08:42:26;20.25;;;11.10;;
79697;SDS011;69168;42.708;23.286;2024-02-23T08:44:51;25.02;;;12.32;;
79697;SDS011;69168;42.708;23.286;2024-02-23T08:47:19;22.00;;;11.98;;
79697;SDS011;69168;42.708;23.286;2024-02-23T08:49:44;22.65;;;11.45;;
79697;SDS011;69168;42.708;23.286;2024-02-23T08:52:10;22.95;;;11.60;;
79697;SDS011;69168;42.708;23.286;2024-02-23T08:54:36;24.42;;;13.02;;
79697;SDS011;69168;42.708;23.286;2024-02-23T08:57:02;13.93;;;8.68;;
79697;SDS011;69168;42.708;23.286;2024-02-23T08:59:29;13.35;;;6.53;;
79697;SDS011;69168;42.708;23.286;2024-02-23T09:01:54;13.68;;;6.97;;
79697;SDS011;69168;42.708;23.286;2024-02-23T09:04:20;11.63;;;7.03;;
79697;SDS011;69168;42.708;23.286;2024-02-23T09:06:45;11.48;;;7.00;;
79697;SDS011;69168;42.708;23.286;2024-02-23T09:09:11;11.68;;;6.85;;
79697;SDS011;69168;42.708;23.286;2024-02-23T09:11:36;8.93;;;6.10;;
79697;SDS011;69168;42.708;23.286;2024-02-23T09:14:02;8.48;;;4.57;;
79697;SDS011;69168;42.708;23.286;2024-02-23T09:16:29;8.48;;;5.43;;
79697;SDS011;69168;42.708;23.286;2024-02-23T09:18:54;7.55;;;4.60;;
79697;SDS011;69168;42.708;23.286;2024-02-23T09:21:20;10.68;;;5.90;;
79697;SDS011;69168;42.708;23.286;2024-02-23T09:23:45;7.15;;;3.65;;
79697;SDS011;69168;42.708;23.286;2024-02-23T09:26:11;8.63;;;3.58;;
79697;SDS011;69168;42.708;23.286;2024-02-23T09:28:37;5.55;;;3.47;;
79697;SDS011;69168;42.708;23.286;2024-02-23T09:31:07;5.95;;;3.95;;
79697;SDS011;69168;42.708;23.286;2024-02-23T09:33:33;6.68;;;4.25;;
79697;SDS011;69168;42.708;23.286;2024-02-23T09:35:58;7.53;;;4.40;;
79697;SDS011;69168;42.708;23.286;2024-02-23T09:38:24;4.32;;;2.85;;
79697;SDS011;69168;42.708;23.286;2024-02-23T09:40:50;5.07;;;3.00;;
79697;SDS011;69168;42.708;23.286;2024-02-23T09:43:17;4.45;;;3.05;;
79697;SDS011;69168;42.708;23.286;2024-02-23T09:45:44;6.82;;;3.65;;
79697;SDS011;69168;42.708;23.286;2024-02-23T09:48:11;6.90;;;3.70;;
79697;SDS011;69168;42.708;23.286;2024-02-23T09:50:39;5.18;;;3.47;;
79697;SDS011;69168;42.708;23.286;2024-02-23T09:53:07;5.57;;;2.78;;
79697;SDS011;69168;42.708;23.286;2024-02-23T09:55:35;3.47;;;2.33;;
79697;SDS011;69168;42.708;23.286;2024-02-23T09:58:01;6.97;;;3.20;;
79697;SDS011;69168;42.708;23.286;2024-02-23T10:00:28;4.35;;;2.78;;
79697;SDS011;69168;42.708;23.286;2024-02-23T10:02:55;6.72;;;3.30;;
79697;SDS011;69168;42.708;23.286;2024-02-23T10:05:23;6.88;;;2.80;;
79697;SDS011;69168;42.708;23.286;2024-02-23T10:07:53;5.82;;;2.60;;
79697;SDS011;69168;42.708;23.286;2024-02-23T10:10:24;3.80;;;2.42;;
79697;SDS011;69168;42.708;23.286;2024-02-23T10:12:54;2.67;;;1.92;;
79697;SDS011;69168;42.708;23.286;2024-02-23T10:15:20;3.53;;;2.35;;
79697;SDS011;69168;42.708;23.286;2024-02-23T10:17:45;3.00;;;2.05;;
79697;SDS011;69168;42.708;23.286;2024-02-23T10:20:11;4.70;;;2.20;;
79697;SDS011;69168;42.708;23.286;2024-02-23T10:22:36;2.97;;;1.92;;
79697;SDS011;69168;42.708;23.286;2024-02-23T10:25:02;4.45;;;2.30;;
79697;SDS011;69168;42.708;23.286;2024-02-23T10:27:27;4.72;;;2.83;;
79697;SDS011;69168;42.708;23.286;2024-02-23T10:29:53;2.50;;;2.00;;
79697;SDS011;69168;42.708;23.286;2024-02-23T10:32:19;2.72;;;1.92;;
79697;SDS011;69168;42.708;23.286;2024-02-23T10:34:47;3.08;;;2.20;;
79697;SDS011;69168;42.708;23.286;2024-02-23T10:37:14;5.82;;;2.00;;
79697;SDS011;69168;42.708;23.286;2024-02-23T10:39:40;4.53;;;1.60;;
79697;SDS011;69168;42.708;23.286;2024-02-23T10:42:08;3.35;;;1.70;;
79697;SDS011;69168;42.708;23.286;2024-02-23T10:44:35;2.50;;;1.70;;
79697;SDS011;69168;42.708;23.286;2024-02-23T10:47:02;1.73;;;1.52;;
79697;SDS011;69168;42.708;23.286;2024-02-23T10:49:29;3.03;;;1.70;;
79697;SDS011;69168;42.708;23.286;2024-02-23T10:51:56;2.72;;;1.42;;
79697;SDS011;69168;42.708;23.286;2024-02-23T10:54:22;3.35;;;1.95;;
79697;SDS011;69168;42.708;23.286;2024-02-23T10:56:48;5.13;;;2.20;;
79697;SDS011;69168;42.708;23.286;2024-02-23T10:59:15;2.35;;;1.60;;
79697;SDS011;69168;42.708;23.286;2024-02-23T11:01:52;3.42;;;1.90;;
79697;SDS011;69168;42.708;23.286;2024-02-23T11:04:22;3.08;;;2.03;;
79697;SDS011;69168;42.708;23.286;2024-02-23T11:06:52;2.95;;;1.77;;
79697;SDS011;69168;42.708;23.286;2024-02-23T11:09:23;2.58;;;1.73;;
79697;SDS011;69168;42.708;23.286;2024-02-23T11:11:53;3.20;;;1.80;;
79697;SDS011;69168;42.708;23.286;2024-02-23T11:14:32;2.72;;;2.10;;
79697;SDS011;69168;42.708;23.286;2024-02-23T11:17:04;2.00;;;1.55;;
79697;SDS011;69168;42.708;23.286;2024-02-23T11:19:33;4.47;;;1.77;;
79697;SDS011;69168;42.708;23.286;2024-02-23T11:22:02;5.45;;;1.70;;
79697;SDS011;69168;42.708;23.286;2024-02-23T11:24:29;3.40;;;1.75;;
79697;SDS011;69168;42.708;23.286;2024-02-23T11:29:21;2.55;;;1.38;;
79697;SDS011;69168;42.708;23.286;2024-02-23T11:31:47;2.67;;;1.55;;
79697;SDS011;69168;42.708;23.286;2024-02-23T11:34:13;1.75;;;1.42;;
79697;SDS011;69168;42.708;23.286;2024-02-23T11:36:38;1.63;;;1.33;;
79697;SDS011;69168;42.708;23.286;2024-02-23T11:39:04;2.95;;;2.05;;
79697;SDS011;69168;42.708;23.286;2024-02-23T11:41:30;2.40;;;2.03;;
79697;SDS011;69168;42.708;23.286;2024-02-23T11:43:56;3.35;;;1.95;;
79697;SDS011;69168;42.708;23.286;2024-02-23T11:48:49;2.67;;;1.80;;
79697;SDS011;69168;42.708;23.286;2024-02-23T11:51:25;4.78;;;2.47;;
79697;SDS011;69168;42.708;23.286;2024-02-23T11:53:54;2.90;;;1.98;;
79697;SDS011;69168;42.708;23.286;2024-02-23T11:56:23;2.50;;;1.65;;
79697;SDS011;69168;42.708;23.286;2024-02-23T11:58:49;3.28;;;1.80;;
79697;SDS011;69168;42.708;23.286;2024-02-23T12:01:14;3.05;;;2.10;;
79697;SDS011;69168;42.708;23.286;2024-02-23T12:03:40;3.20;;;1.70;;
79697;SDS011;69168;42.708;23.286;2024-02-23T12:06:08;2.38;;;1.73;;
79697;SDS011;69168;42.708;23.286;2024-02-23T12:11:07;4.00;;;1.65;;
79697;SDS011;69168;42.708;23.286;2024-02-23T12:13:37;2.00;;;1.40;;
79697;SDS011;69168;42.708;23.286;2024-02-23T12:16:03;3.92;;;1.60;;
79697;SDS011;69168;42.708;23.286;2024-02-23T12:21:04;2.28;;;1.45;;
79697;SDS011;69168;42.708;23.286;2024-02-23T12:26:09;3.08;;;1.58;;
79697;SDS011;69168;42.708;23.286;2024-02-23T12:28:38;2.38;;;1.58;;
79697;SDS011;69168;42.708;23.286;2024-02-23T12:31:04;1.80;;;1.45;;
79697;SDS011;69168;42.708;23.286;2024-02-23T12:38:23;2.38;;;1.50;;
79697;SDS011;69168;42.708;23.286;2024-02-23T12:40:48;2.33;;;1.50;;
79697;SDS011;69168;42.708;23.286;2024-02-23T12:43:14;4.05;;;1.60;;
79697;SDS011;69168;42.708;23.286;2024-02-23T12:45:39;5.53;;;1.48;;
79697;SDS011;69168;42.708;23.286;2024-02-23T12:48:05;3.38;;;1.77;;
79697;SDS011;69168;42.708;23.286;2024-02-23T12:50:31;3.08;;;1.80;;
79697;SDS011;69168;42.708;23.286;2024-02-23T12:52:57;4.63;;;2.58;;
79697;SDS011;69168;42.708;23.286;2024-02-23T12:55:23;3.97;;;2.10;;
79697;SDS011;69168;42.708;23.286;2024-02-23T12:57:48;3.55;;;1.50;;
79697;SDS011;69168;42.708;23.286;2024-02-23T13:00:15;3.13;;;1.70;;
79697;SDS011;69168;42.708;23.286;2024-02-23T13:02:40;8.32;;;2.58;;
79697;SDS011;69168;42.708;23.286;2024-02-23T13:05:06;2.88;;;1.85;;
79697;SDS011;69168;42.708;23.286;2024-02-23T13:07:32;2.17;;;1.50;;
79697;SDS011;69168;42.708;23.286;2024-02-23T13:10:03;1.85;;;1.60;;
79697;SDS011;69168;42.708;23.286;2024-02-23T13:12:29;3.38;;;1.38;;
79697;SDS011;69168;42.708;23.286;2024-02-23T13:14:55;4.55;;;1.70;;
79697;SDS011;69168;42.708;23.286;2024-02-23T13:17:20;1.92;;;1.50;;
79697;SDS011;69168;42.708;23.286;2024-02-23T13:19:46;3.22;;;2.38;;
79697;SDS011;69168;42.708;23.286;2024-02-23T13:22:11;3.65;;;1.40;;
79697;SDS011;69168;42.708;23.286;2024-02-23T13:24:37;2.92;;;1.70;;
79697;SDS011;69168;42.708;23.286;2024-02-23T13:27:05;1.90;;;1.40;;
79697;SDS011;69168;42.708;23.286;2024-02-23T13:29:30;2.08;;;1.48;;
79697;SDS011;69168;42.708;23.286;2024-02-23T13:31:56;5.80;;;1.90;;
79697;SDS011;69168;42.708;23.286;2024-02-23T13:34:22;3.55;;;1.33;;
79697;SDS011;69168;42.708;23.286;2024-02-23T13:36:47;2.47;;;1.45;;
79697;SDS011;69168;42.708;23.286;2024-02-23T13:39:15;3.53;;;1.75;;
79697;SDS011;69168;42.708;23.286;2024-02-23T13:41:40;3.03;;;1.60;;
79697;SDS011;69168;42.708;23.286;2024-02-23T13:44:06;3.90;;;1.90;;
79697;SDS011;69168;42.708;23.286;2024-02-23T13:46:35;3.42;;;1.83;;
79697;SDS011;69168;42.708;23.286;2024-02-23T13:49:04;2.13;;;1.42;;
79697;SDS011;69168;42.708;23.286;2024-02-23T13:51:34;4.82;;;1.55;;
79697;SDS011;69168;42.708;23.286;2024-02-23T13:54:00;3.03;;;1.60;;
79697;SDS011;69168;42.708;23.286;2024-02-23T13:56:26;2.78;;;1.35;;
79697;SDS011;69168;42.708;23.286;2024-02-23T13:58:51;3.03;;;1.65;;
79697;SDS011;69168;42.708;23.286;2024-02-23T14:01:17;1.75;;;1.13;;
79697;SDS011;69168;42.708;23.286;2024-02-23T14:03:43;3.70;;;2.05;;
79697;SDS011;69168;42.708;23.286;2024-02-23T14:06:08;3.75;;;2.22;;
79697;SDS011;69168;42.708;23.286;2024-02-23T14:08:34;3.75;;;1.80;;
79697;SDS011;69168;42.708;23.286;2024-02-23T14:11:02;2.80;;;1.30;;
79697;SDS011;69168;42.708;23.286;2024-02-23T14:13:30;3.35;;;1.70;;
79697;SDS011;69168;42.708;23.286;2024-02-23T14:15:57;3.55;;;1.67;;
79697;SDS011;69168;42.708;23.286;2024-02-23T14:18:23;2.58;;;1.70;;
79697;SDS011;69168;42.708;23.286;2024-02-23T14:20:48;4.03;;;2.10;;
79697;SDS011;69168;42.708;23.286;2024-02-23T14:23:14;2.60;;;1.50;;
79697;SDS011;69168;42.708;23.286;2024-02-23T14:25:39;3.42;;;1.70;;
79697;SDS011;69168;42.708;23.286;2024-02-23T14:28:05;2.45;;;1.40;;
79697;SDS011;69168;42.708;23.286;2024-02-23T14:30:31;4.93;;;1.52;;
79697;SDS011;69168;42.708;23.286;2024-02-23T14:32:56;3.15;;;1.75;;
79697;SDS011;69168;42.708;23.286;2024-02-23T14:35:22;4.53;;;1.80;;
79697;SDS011;69168;42.708;23.286;2024-02-23T14:37:47;3.05;;;1.52;;
79697;SDS011;69168;42.708;23.286;2024-02-23T14:40:13;2.38;;;1.77;;